createdAt,value
2018-08-09T00:00:51.553Z,20.71
2018-08-09T00:03:20.528Z,20.71
2018-08-09T00:05:49.432Z,20.67
2018-08-09T00:08:18.345Z,20.65
2018-08-09T00:10:47.248Z,20.66
2018-08-09T00:13:16.194Z,20.62
2018-08-09T00:15:45.096Z,20.59
2018-08-09T00:18:14.015Z,20.58
2018-08-09T00:20:42.903Z,20.59
2018-08-09T00:23:11.828Z,20.54
2018-08-09T00:25:40.844Z,20.48
2018-08-09T00:28:09.711Z,20.43
2018-08-09T00:30:38.684Z,20.41
2018-08-09T00:33:07.703Z,20.37
2018-08-09T00:35:36.634Z,20.29
2018-08-09T00:38:05.614Z,20.28
2018-08-09T00:40:34.632Z,20.30
2018-08-09T00:43:04.569Z,20.32
2018-08-09T00:45:33.618Z,20.29
2018-08-09T00:48:02.744Z,20.26
2018-08-09T00:50:31.647Z,20.12
2018-08-09T00:53:00.591Z,19.98
2018-08-09T00:55:29.564Z,20.00
2018-08-09T00:57:58.587Z,20.04
2018-08-09T01:00:27.550Z,20.07
2018-08-09T01:02:56.543Z,20.09
2018-08-09T01:05:25.511Z,20.08
2018-08-09T01:07:54.563Z,20.09
2018-08-09T01:10:23.511Z,20.09
2018-08-09T01:12:52.602Z,20.10
2018-08-09T01:15:21.521Z,20.11
2018-08-09T01:17:50.587Z,20.16
2018-08-09T01:20:20.691Z,20.15
2018-08-09T01:22:49.837Z,20.18
2018-08-09T01:25:18.795Z,20.15
2018-08-09T01:27:47.846Z,20.20
2018-08-09T01:30:17.038Z,20.21
2018-08-09T01:32:46.009Z,20.20
2018-08-09T01:35:14.956Z,20.15
2018-08-09T01:37:43.963Z,20.07
2018-08-09T01:40:12.950Z,20.04
2018-08-09T01:42:53.348Z,20.06
2018-08-09T01:45:22.365Z,19.97
2018-08-09T01:47:51.384Z,20.01
2018-08-09T01:50:20.418Z,19.99
2018-08-09T01:52:49.451Z,19.99
2018-08-09T01:55:18.523Z,19.94
2018-08-09T01:57:47.457Z,19.91
2018-08-09T02:00:16.406Z,19.93
2018-08-09T02:02:45.396Z,19.93
2018-08-09T02:05:15.013Z,19.93
2018-08-09T02:07:44.067Z,19.95
2018-08-09T02:10:13.088Z,19.95
2018-08-09T02:12:42.056Z,19.91
2018-08-09T02:15:10.958Z,19.79
2018-08-09T02:17:40.292Z,19.83
2018-08-09T02:20:09.203Z,19.85
2018-08-09T02:22:38.095Z,19.88
2018-08-09T02:25:07.004Z,19.78
2018-08-09T02:27:35.941Z,19.80
2018-08-09T02:30:05.803Z,19.80
2018-08-09T02:32:34.687Z,19.78
2018-08-09T02:35:03.614Z,19.74
2018-08-09T02:37:32.532Z,19.70
2018-08-09T02:40:01.459Z,19.71
2018-08-09T02:42:30.553Z,19.72
2018-08-09T02:44:59.463Z,19.67
2018-08-09T02:47:28.363Z,19.65
2018-08-09T02:49:57.294Z,19.57
2018-08-09T02:52:26.307Z,19.49
2018-08-09T02:54:55.311Z,19.48
2018-08-09T02:57:24.320Z,19.48
2018-08-09T02:59:53.347Z,19.44
2018-08-09T03:02:22.227Z,19.41
2018-08-09T03:04:51.151Z,19.43
2018-08-09T03:07:20.105Z,19.45
2018-08-09T03:09:49.007Z,19.46
2018-08-09T03:12:17.955Z,19.48
2018-08-09T03:14:47.127Z,19.41
2018-08-09T03:17:16.121Z,19.42
2018-08-09T03:19:44.955Z,19.39
2018-08-09T03:22:13.896Z,19.37
2018-08-09T03:24:42.859Z,19.40
2018-08-09T03:27:11.811Z,19.39
2018-08-09T03:29:40.744Z,19.39
2018-08-09T03:32:09.692Z,19.37
2018-08-09T03:34:38.628Z,19.37
2018-08-09T03:37:08.632Z,19.35
2018-08-09T03:39:37.563Z,19.38
2018-08-09T03:42:06.527Z,19.34
2018-08-09T03:44:35.514Z,19.36
2018-08-09T03:47:04.488Z,19.36
2018-08-09T03:49:33.435Z,19.38
2018-08-09T03:52:02.408Z,19.38
2018-08-09T03:54:31.383Z,19.40
2018-08-09T03:57:00.339Z,19.40
2018-08-09T03:59:29.294Z,19.41
2018-08-09T04:01:58.202Z,19.42
2018-08-09T04:04:27.190Z,19.39
2018-08-09T04:06:56.125Z,19.38
2018-08-09T04:09:25.068Z,19.38
2018-08-09T04:11:54.079Z,19.38
2018-08-09T04:14:23.104Z,19.39
2018-08-09T04:16:52.018Z,19.43
2018-08-09T04:19:20.967Z,19.45
2018-08-09T04:21:49.939Z,19.43
2018-08-09T04:24:18.854Z,19.45
2018-08-09T04:26:47.784Z,19.48
2018-08-09T04:29:16.684Z,19.52
2018-08-09T04:31:45.601Z,19.57
2018-08-09T04:34:14.540Z,19.58
2018-08-09T04:36:43.463Z,19.65
2018-08-09T04:39:12.462Z,19.69
2018-08-09T04:41:41.432Z,19.75
2018-08-09T04:44:10.339Z,19.79
2018-08-09T04:46:39.270Z,19.81
2018-08-09T04:49:08.257Z,19.91
2018-08-09T04:51:37.185Z,20.01
2018-08-09T04:54:06.128Z,20.05
2018-08-09T04:56:35.048Z,20.01
2018-08-09T04:59:04.767Z,20.07
2018-08-09T05:01:33.662Z,20.12
2018-08-09T05:04:02.581Z,20.17
2018-08-09T05:06:31.544Z,20.24
2018-08-09T05:09:00.475Z,20.32
2018-08-09T05:11:29.401Z,20.28
2018-08-09T05:13:58.323Z,20.33
2018-08-09T05:16:27.264Z,20.30
2018-08-09T05:18:56.178Z,20.53
2018-08-09T05:21:25.082Z,20.57
2018-08-09T05:23:54.032Z,20.62
2018-08-09T05:26:22.966Z,20.72
2018-08-09T05:28:51.884Z,20.80
2018-08-09T05:31:20.963Z,20.84
2018-08-09T05:33:49.912Z,20.85
2018-08-09T05:36:18.864Z,20.90
2018-08-09T05:38:47.845Z,20.93
2018-08-09T05:41:16.875Z,20.93
2018-08-09T05:43:45.862Z,21.09
2018-08-09T05:46:14.824Z,21.26
2018-08-09T05:48:43.790Z,21.48
2018-08-09T05:51:12.755Z,21.62
2018-08-09T05:53:41.722Z,21.79
2018-08-09T05:56:10.706Z,22.43
2018-08-09T05:58:39.703Z,23.12
2018-08-09T06:01:08.645Z,23.26
2018-08-09T06:03:37.640Z,23.36
2018-08-09T06:06:06.571Z,23.97
2018-08-09T06:08:35.550Z,24.26
2018-08-09T06:11:04.521Z,24.69
2018-08-09T06:13:33.522Z,25.54
2018-08-09T06:16:02.377Z,25.86
2018-08-09T06:18:31.436Z,26.47
2018-08-09T06:21:00.397Z,26.76
2018-08-09T06:23:29.320Z,26.75
2018-08-09T06:25:58.263Z,26.90
2018-08-09T06:28:27.205Z,27.42
2018-08-09T06:30:56.246Z,27.34
2018-08-09T06:33:25.234Z,27.38
2018-08-09T06:35:54.135Z,28.53
2018-08-09T06:38:23.047Z,29.06
2018-08-09T06:40:52.105Z,29.20
2018-08-09T06:43:21.116Z,29.54
2018-08-09T06:45:50.028Z,29.77
2018-08-09T06:48:19.022Z,30.05
2018-08-09T06:50:47.993Z,30.91
2018-08-09T06:53:16.925Z,31.39
2018-08-09T06:55:45.867Z,31.33
2018-08-09T06:58:14.792Z,31.56
2018-08-09T07:00:43.700Z,32.26
2018-08-09T07:03:12.652Z,32.77
2018-08-09T07:05:41.643Z,32.48
2018-08-09T07:08:10.518Z,33.38
2018-08-09T07:10:39.458Z,32.87
2018-08-09T07:13:08.373Z,33.24
2018-08-09T07:15:37.361Z,31.80
2018-08-09T07:18:06.344Z,31.74
2018-08-09T07:20:35.273Z,32.33
2018-08-09T07:23:04.215Z,32.66
2018-08-09T07:25:33.147Z,32.97
2018-08-09T07:28:02.166Z,33.39
2018-08-09T07:30:31.125Z,32.51
2018-08-09T07:33:00.089Z,31.99
2018-08-09T07:35:29.046Z,31.52
2018-08-09T07:37:58.018Z,31.79
2018-08-09T07:40:26.943Z,31.99
2018-08-09T07:42:55.868Z,33.00
2018-08-09T07:45:24.904Z,32.88
2018-08-09T07:47:53.867Z,33.22
2018-08-09T07:50:22.803Z,32.87
2018-08-09T07:52:51.728Z,32.57
2018-08-09T07:55:20.674Z,33.10
2018-08-09T07:57:49.628Z,32.95
2018-08-09T08:00:18.571Z,33.37
2018-08-09T08:02:47.506Z,32.87
2018-08-09T08:05:16.455Z,32.46
2018-08-09T08:07:45.451Z,33.34
2018-08-09T08:10:14.379Z,33.90
2018-08-09T08:12:43.352Z,33.98
2018-08-09T08:15:12.286Z,34.05
2018-08-09T08:17:41.223Z,34.06
2018-08-09T08:20:10.526Z,33.32
2018-08-09T08:22:39.451Z,33.14
2018-08-09T08:25:08.624Z,33.53
2018-08-09T08:27:37.752Z,34.45
2018-08-09T08:30:10.159Z,34.90
2018-08-09T08:32:39.684Z,35.08
2018-08-09T08:35:08.695Z,34.56
2018-08-09T08:37:38.103Z,35.18
2018-08-09T08:40:07.323Z,36.66
2018-08-09T08:42:36.697Z,36.00
2018-08-09T08:45:08.136Z,36.86
2018-08-09T08:47:37.115Z,36.65
2018-08-09T08:50:07.205Z,36.02
2018-08-09T08:52:36.312Z,35.83
2018-08-09T08:55:07.551Z,35.49
2018-08-09T08:57:36.496Z,34.91
2018-08-09T09:00:06.845Z,35.03
2018-08-09T09:02:35.941Z,35.30
2018-08-09T09:05:06.287Z,35.86
2018-08-09T09:07:35.292Z,36.53
2018-08-09T09:10:04.662Z,36.96
2018-08-09T09:12:33.630Z,38.12
2018-08-09T09:15:02.572Z,38.77
2018-08-09T09:17:31.504Z,38.85
2018-08-09T09:20:00.469Z,38.92
2018-08-09T09:22:29.463Z,37.99
2018-08-09T09:24:58.396Z,37.66
2018-08-09T09:27:27.323Z,38.07
2018-08-09T09:29:56.347Z,37.81
2018-08-09T09:32:25.282Z,38.11
2018-08-09T09:34:54.235Z,37.98
2018-08-09T09:37:23.070Z,38.13
2018-08-09T09:39:52.001Z,38.27
2018-08-09T09:42:20.905Z,37.87
2018-08-09T09:44:49.810Z,38.10
2018-08-09T09:47:18.769Z,38.76
2018-08-09T09:49:47.687Z,39.14
2018-08-09T09:52:16.613Z,38.39
2018-08-09T09:54:45.609Z,38.42
2018-08-09T09:57:14.570Z,38.76
2018-08-09T09:59:43.574Z,38.16
2018-08-09T10:02:12.499Z,37.98
2018-08-09T10:04:41.428Z,38.61
2018-08-09T10:07:10.419Z,38.66
2018-08-09T10:09:39.323Z,38.48
2018-08-09T10:12:08.326Z,38.57
2018-08-09T10:14:37.288Z,37.34
2018-08-09T10:17:06.200Z,37.31
2018-08-09T10:19:35.099Z,37.75
2018-08-09T10:22:04.029Z,37.97
2018-08-09T10:24:32.928Z,38.48
2018-08-09T10:27:01.869Z,38.94
2018-08-09T10:29:30.806Z,39.98
2018-08-09T10:31:59.828Z,39.81
2018-08-09T10:34:28.743Z,40.59
2018-08-09T10:36:57.653Z,39.61
2018-08-09T10:39:26.588Z,40.60
2018-08-09T10:41:55.571Z,39.30
2018-08-09T10:44:24.520Z,39.62
2018-08-09T10:46:53.427Z,39.85
2018-08-09T10:49:22.410Z,40.12
2018-08-09T10:51:51.334Z,38.65
2018-08-09T10:54:20.315Z,39.09
2018-08-09T10:56:49.230Z,38.51
2018-08-09T10:59:18.143Z,39.00
2018-08-09T11:01:47.104Z,39.10
2018-08-09T11:04:16.110Z,39.00
2018-08-09T11:06:45.020Z,39.70
2018-08-09T11:09:13.944Z,39.22
2018-08-09T11:11:46.717Z,38.84
2018-08-09T11:14:15.633Z,38.53
2018-08-09T11:16:44.612Z,38.28
2018-08-09T11:19:13.548Z,37.92
2018-08-09T11:21:42.449Z,39.45
2018-08-09T11:24:11.353Z,39.23
2018-08-09T11:26:40.305Z,37.56
2018-08-09T11:29:09.304Z,37.66
2018-08-09T11:31:38.235Z,38.39
2018-08-09T11:34:07.163Z,38.69
2018-08-09T11:36:36.055Z,38.63
2018-08-09T11:39:08.407Z,38.15
2018-08-09T11:41:37.327Z,38.60
2018-08-09T11:44:06.285Z,38.77
2018-08-09T11:46:35.250Z,39.38
2018-08-09T11:49:04.249Z,38.83
2018-08-09T11:51:33.190Z,39.74
2018-08-09T11:54:02.144Z,40.50
2018-08-09T11:56:31.249Z,39.59
2018-08-09T11:59:00.215Z,38.81
2018-08-09T12:01:29.239Z,38.70
2018-08-09T12:03:58.270Z,39.43
2018-08-09T12:06:27.289Z,39.03
2018-08-09T12:08:56.291Z,38.58
2018-08-09T12:11:25.395Z,38.28
2018-08-09T12:13:54.328Z,38.02
2018-08-09T12:16:23.349Z,37.22
2018-08-09T12:18:52.295Z,37.70
2018-08-09T12:21:21.367Z,37.81
2018-08-09T12:23:50.317Z,37.95
2018-08-09T12:26:19.321Z,38.99
2018-08-09T12:28:48.260Z,38.91
2018-08-09T12:31:17.256Z,39.45
2018-08-09T12:33:46.206Z,40.06
2018-08-09T12:36:15.211Z,38.38
2018-08-09T12:38:44.264Z,38.57
2018-08-09T12:41:13.223Z,39.86
2018-08-09T12:43:42.123Z,40.33
2018-08-09T12:46:11.054Z,40.49
2018-08-09T12:48:40.004Z,39.99
2018-08-09T12:51:09.060Z,39.57
2018-08-09T12:53:37.999Z,38.81
2018-08-09T12:56:06.980Z,38.57
2018-08-09T12:58:36.286Z,38.28
2018-08-09T13:01:05.332Z,38.80
2018-08-09T13:03:34.261Z,38.59
2018-08-09T13:06:03.494Z,39.19
2018-08-09T13:08:32.434Z,39.23
2018-08-09T13:11:01.440Z,40.57
2018-08-09T13:13:30.296Z,40.49
2018-08-09T13:15:59.239Z,40.65
2018-08-09T13:18:28.181Z,39.76
2018-08-09T13:20:57.248Z,39.42
2018-08-09T13:23:26.267Z,40.00
2018-08-09T13:25:55.191Z,38.69
2018-08-09T13:28:24.245Z,37.49
2018-08-09T13:30:53.353Z,38.02
2018-08-09T13:33:22.325Z,38.82
2018-08-09T13:35:51.283Z,38.83
2018-08-09T13:38:20.245Z,39.15
2018-08-09T13:40:49.268Z,40.16
2018-08-09T13:43:18.267Z,38.98
2018-08-09T13:45:47.259Z,38.45
2018-08-09T13:48:16.192Z,37.97
2018-08-09T13:50:45.110Z,37.19
2018-08-09T13:53:14.185Z,37.53
2018-08-09T13:55:43.303Z,38.25
2018-08-09T13:58:12.296Z,38.56
2018-08-09T14:00:41.309Z,38.37
2018-08-09T14:03:10.262Z,38.95
2018-08-09T14:05:39.276Z,39.06
2018-08-09T14:08:08.272Z,39.50
2018-08-09T14:10:37.333Z,39.27
2018-08-09T14:13:06.238Z,38.50
2018-08-09T14:15:35.180Z,37.58
2018-08-09T14:18:04.448Z,38.17
2018-08-09T14:20:33.374Z,38.03
2018-08-09T14:23:02.320Z,37.50
2018-08-09T14:25:31.297Z,38.05
2018-08-09T14:28:00.201Z,38.36
2018-08-09T14:30:29.215Z,38.42
2018-08-09T14:32:58.441Z,38.06
2018-08-09T14:35:27.335Z,37.96
2018-08-09T14:37:56.361Z,37.99
2018-08-09T14:40:25.337Z,37.02
2018-08-09T14:42:54.421Z,35.91
2018-08-09T14:45:23.451Z,36.02
2018-08-09T14:47:52.418Z,36.78
2018-08-09T14:50:21.492Z,37.45
2018-08-09T14:52:50.420Z,37.36
2018-08-09T14:55:19.374Z,36.84
2018-08-09T14:57:48.344Z,36.95
2018-08-09T15:00:18.866Z,37.09
2018-08-09T15:02:48.167Z,37.31
2018-08-09T15:05:17.588Z,37.78
2018-08-09T15:07:46.521Z,38.13
2018-08-09T15:10:16.263Z,38.22
2018-08-09T15:12:45.204Z,39.00
2018-08-09T15:15:14.159Z,38.60
2018-08-09T15:17:43.155Z,38.17
2018-08-09T15:20:13.356Z,37.97
2018-08-09T15:22:42.441Z,37.27
2018-08-09T15:25:11.976Z,37.75
2018-08-09T15:27:40.960Z,37.76
2018-08-09T15:30:13.454Z,37.41
2018-08-09T15:32:42.474Z,37.19
2018-08-09T15:35:11.516Z,36.95
2018-08-09T15:37:40.479Z,36.56
2018-08-09T15:40:10.535Z,36.74
2018-08-09T15:42:39.443Z,36.91
2018-08-09T15:45:11.080Z,37.29
2018-08-09T15:47:40.600Z,37.56
2018-08-09T15:50:13.359Z,37.00
2018-08-09T15:52:42.796Z,37.11
2018-08-09T15:55:11.992Z,37.03
2018-08-09T15:57:40.923Z,37.04
2018-08-09T16:00:13.154Z,36.90
2018-08-09T16:02:42.082Z,36.93
2018-08-09T16:05:10.996Z,37.38
2018-08-09T16:07:40.012Z,36.93
2018-08-09T16:10:12.218Z,37.24
2018-08-09T16:12:41.404Z,36.70
2018-08-09T16:15:13.778Z,37.17
2018-08-09T16:17:43.160Z,36.54
2018-08-09T16:23:12.004Z,35.59
2018-08-09T16:25:41.038Z,35.73
2018-08-09T16:28:09.949Z,35.79
2018-08-09T16:30:38.899Z,35.89
2018-08-09T16:33:07.798Z,36.15
2018-08-09T16:35:36.739Z,35.98
2018-08-09T16:38:05.657Z,35.83
2018-08-09T16:40:34.560Z,35.76
2018-08-09T16:43:03.515Z,36.07
2018-08-09T16:45:32.504Z,36.12
2018-08-09T16:48:01.453Z,35.52
2018-08-09T16:50:30.345Z,35.69
2018-08-09T16:52:59.329Z,35.61
2018-08-09T16:55:28.770Z,35.65
2018-08-09T16:57:57.684Z,35.52
2018-08-09T17:00:26.698Z,35.56
2018-08-09T17:02:55.929Z,35.72
2018-08-09T17:05:26.068Z,35.55
2018-08-09T17:07:55.020Z,35.49
2018-08-09T17:10:24.859Z,35.47
2018-08-09T17:12:53.786Z,35.30
2018-08-09T17:15:24.603Z,35.22
2018-08-09T17:17:54.128Z,34.94
2018-08-09T17:20:25.559Z,34.95
2018-08-09T17:22:54.487Z,34.92
2018-08-09T17:25:23.470Z,34.81
2018-08-09T17:27:52.551Z,34.81
2018-08-09T17:30:23.334Z,34.82
2018-08-09T17:32:52.208Z,34.80
2018-08-09T17:35:21.467Z,34.85
2018-08-09T17:37:50.539Z,34.75
2018-08-09T17:40:24.464Z,34.75
2018-08-09T17:42:54.308Z,34.69
2018-08-09T17:45:26.537Z,34.62
2018-08-09T17:47:55.483Z,34.52
2018-08-09T17:50:24.417Z,34.44
2018-08-09T17:52:53.883Z,34.33
2018-08-09T17:55:22.905Z,34.28
2018-08-09T17:57:51.900Z,34.19
2018-08-09T18:00:25.153Z,34.11
2018-08-09T18:02:54.542Z,34.16
2018-08-09T18:05:23.480Z,34.01
2018-08-09T18:07:53.106Z,33.96
2018-08-09T18:10:25.283Z,33.86
2018-08-09T18:12:54.265Z,33.51
2018-08-09T18:15:24.304Z,33.28
2018-08-09T18:17:53.370Z,33.03
2018-08-09T18:20:24.350Z,32.84
2018-08-09T18:22:53.332Z,32.58
2018-08-09T18:25:26.887Z,32.40
2018-08-09T18:27:55.909Z,32.17
2018-08-09T18:30:24.895Z,31.97
2018-08-09T18:32:53.991Z,31.83
2018-08-09T18:35:22.800Z,31.62
2018-08-09T18:37:51.785Z,31.41
2018-08-09T18:40:24.084Z,31.30
2018-08-09T18:42:53.048Z,31.13
2018-08-09T18:45:22.273Z,31.00
2018-08-09T18:47:51.276Z,30.92
2018-08-09T18:50:27.987Z,30.83
2018-08-09T18:52:57.158Z,30.72
2018-08-09T18:55:26.104Z,30.64
2018-08-09T18:57:55.029Z,30.59
2018-08-09T19:00:25.910Z,30.51
2018-08-09T19:02:55.047Z,30.50
2018-08-09T19:05:24.165Z,30.37
2018-08-09T19:07:53.180Z,30.26
2018-08-09T19:10:24.527Z,30.21
2018-08-09T19:12:53.645Z,30.16
2018-08-09T19:15:22.603Z,30.09
2018-08-09T19:17:51.739Z,30.00
2018-08-09T19:20:22.596Z,29.88
2018-08-09T19:22:51.875Z,29.81
2018-08-09T19:25:20.832Z,29.68
2018-08-09T19:27:49.797Z,29.68
2018-08-09T19:30:20.326Z,29.65
2018-08-09T19:32:49.441Z,29.57
2018-08-09T19:35:19.209Z,29.47
2018-08-09T19:37:48.140Z,29.39
2018-08-09T19:40:20.348Z,29.34
2018-08-09T19:42:49.371Z,29.32
2018-08-09T19:45:18.914Z,29.24
2018-08-09T19:47:47.859Z,29.22
2018-08-09T19:50:18.387Z,29.10
2018-08-09T19:52:47.320Z,29.02
2018-08-09T19:55:17.715Z,28.99
2018-08-09T19:57:47.833Z,29.04
2018-08-09T20:00:24.814Z,29.04
2018-08-09T20:02:53.745Z,29.02
2018-08-09T20:05:23.378Z,28.98
2018-08-09T20:07:52.472Z,28.95
2018-08-09T20:10:21.402Z,28.89
2018-08-09T20:12:50.379Z,28.77
2018-08-09T20:15:20.453Z,28.66
2018-08-09T20:17:49.416Z,28.48
2018-08-09T20:20:19.972Z,28.42
2018-08-09T20:22:48.921Z,28.26
2018-08-09T20:25:17.935Z,28.13
2018-08-09T20:27:47.409Z,28.10
2018-08-09T20:30:17.168Z,28.06
2018-08-09T20:32:46.667Z,27.96
2018-08-09T20:35:19.209Z,27.90
2018-08-09T20:37:48.398Z,27.82
2018-08-09T20:40:17.916Z,27.78
2018-08-09T20:42:47.847Z,27.68
2018-08-09T20:45:18.257Z,27.60
2018-08-09T20:47:47.187Z,27.52
2018-08-09T20:50:18.195Z,27.32
2018-08-09T20:52:47.790Z,27.18
2018-08-09T20:55:17.007Z,27.11
2018-08-09T20:57:46.800Z,27.05
2018-08-09T21:00:19.954Z,26.98
2018-08-09T21:02:50.242Z,26.93
2018-08-09T21:05:21.574Z,26.91
2018-08-09T21:07:51.480Z,26.68
2018-08-09T21:10:20.771Z,26.61
2018-08-09T21:12:49.697Z,26.50
2018-08-09T21:15:19.446Z,26.40
2018-08-09T21:17:48.372Z,26.36
2018-08-09T21:20:17.335Z,26.27
2018-08-09T21:22:47.376Z,26.18
2018-08-09T21:25:16.423Z,26.08
2018-08-09T21:27:45.871Z,26.02
2018-08-09T21:30:18.680Z,26.01
2018-08-09T21:32:48.192Z,26.00
2018-08-09T21:35:17.148Z,25.95
2018-08-09T21:37:46.403Z,25.86
2018-08-09T21:40:15.755Z,25.92
2018-08-09T21:42:44.748Z,25.88
2018-08-09T21:45:18.971Z,25.80
2018-08-09T21:47:47.956Z,25.73
2018-08-09T21:50:18.217Z,25.69
2018-08-09T21:52:47.283Z,25.63
2018-08-09T21:55:16.256Z,25.58
2018-08-09T21:57:46.010Z,25.58
2018-08-09T22:00:55.131Z,25.45
2018-08-09T22:03:27.358Z,25.38
2018-08-09T22:06:01.564Z,25.27
2018-08-09T22:08:35.966Z,25.19
2018-08-09T22:11:10.699Z,25.11
2018-08-09T22:13:45.055Z,25.10
2018-08-09T22:16:19.400Z,25.05
2018-08-09T22:18:53.708Z,25.06
2018-08-09T22:21:28.040Z,25.05
2018-08-09T22:23:57.004Z,24.88
2018-08-09T22:26:26.007Z,24.85
2018-08-09T22:28:54.940Z,24.80
2018-08-09T22:31:23.885Z,24.76
2018-08-09T22:33:52.811Z,24.69
2018-08-09T22:36:21.775Z,24.73
2018-08-09T22:38:50.649Z,24.70
2018-08-09T22:41:19.661Z,24.66
2018-08-09T22:43:48.615Z,24.57
2018-08-09T22:46:17.566Z,24.56
2018-08-09T22:48:46.487Z,24.62
2018-08-09T22:51:15.372Z,24.50
2018-08-09T22:53:44.316Z,24.59
2018-08-09T22:56:13.287Z,24.49
2018-08-09T22:58:42.203Z,24.54
2018-08-09T23:01:11.211Z,24.52
2018-08-09T23:03:40.132Z,24.46
2018-08-09T23:06:09.008Z,24.39
2018-08-09T23:08:37.918Z,24.32
2018-08-09T23:11:07.352Z,24.44
2018-08-09T23:13:36.302Z,24.46
2018-08-09T23:16:05.874Z,24.51
2018-08-09T23:18:34.802Z,24.47
2018-08-09T23:21:03.727Z,24.45
2018-08-09T23:23:32.677Z,24.45
2018-08-09T23:26:01.639Z,24.44
2018-08-09T23:28:30.666Z,24.39
2018-08-09T23:30:59.693Z,24.45
2018-08-09T23:33:28.662Z,24.41
2018-08-09T23:35:57.584Z,24.33
2018-08-09T23:38:27.496Z,24.28
2018-08-09T23:40:56.458Z,24.33
2018-08-09T23:46:00.614Z,24.23
2018-08-09T23:48:29.544Z,24.25
2018-08-09T23:50:58.485Z,24.24
2018-08-09T23:53:27.456Z,24.08
2018-08-09T23:55:56.412Z,24.07
2018-08-09T23:58:25.384Z,24.06
